Time;durP1;ratioP1;P1;durP2;ratioP2;P2;SDS_P1;SDS_P2;PMS_P1;PMS_P2;Temp;Humidity;BMP_temperature;BMP_pressure;BME280_temperature;BME280_humidity;BME280_pressure;Samples;Min_cycle;Max_cycle;Signal;HPM_P1;HPM_P2
2021/09/18 00:01:21;;;;;;;1.90;1.40;;;14.60;99.90;;;;;;4988473;28;20330;-60
2021/09/18 00:03:49;;;;;;;1.60;1.30;;;14.60;99.90;;;;;;4992414;28;20610;-60
2021/09/18 00:06:17;;;;;;;4.20;1.40;;;14.50;99.90;;;;;;4989620;28;20241;-61
2021/09/18 00:08:46;;;;;;;1.73;1.40;;;14.40;99.90;;;;;;4989859;28;20245;-61
2021/09/18 00:11:15;;;;;;;2.20;1.33;;;14.40;99.90;;;;;;4994498;28;20764;-59
2021/09/18 00:13:43;;;;;;;2.70;1.30;;;14.50;99.90;;;;;;4993147;28;20646;-60
2021/09/18 00:16:11;;;;;;;4.47;1.27;;;14.50;99.90;;;;;;4995452;28;20273;-60
2021/09/18 00:18:39;;;;;;;1.60;1.40;;;14.50;99.90;;;;;;4983632;28;20481;-60
2021/09/18 00:21:07;;;;;;;1.67;1.57;;;14.50;99.90;;;;;;4996629;28;20237;-59
2021/09/18 00:23:35;;;;;;;3.40;1.40;;;14.60;99.90;;;;;;4994740;28;20358;-60
2021/09/18 00:26:05;;;;;;;2.30;1.50;;;14.50;99.90;;;;;;4991698;28;20246;-60
2021/09/18 00:28:33;;;;;;;3.57;1.50;;;14.40;99.90;;;;;;4987216;28;20233;-61
2021/09/18 00:31:01;;;;;;;3.70;1.50;;;14.40;99.90;;;;;;4995929;28;20267;-60
2021/09/18 00:33:29;;;;;;;1.90;1.50;;;14.50;99.90;;;;;;4990575;28;20244;-60
2021/09/18 00:35:58;;;;;;;1.33;1.13;;;14.60;99.90;;;;;;4996894;28;20897;-59
2021/09/18 00:38:26;;;;;;;1.90;1.43;;;14.60;99.90;;;;;;5000532;28;20269;-60
2021/09/18 00:40:54;;;;;;;1.60;1.50;;;14.70;99.90;;;;;;4992745;28;20226;-60
2021/09/18 00:43:24;;;;;;;1.70;1.60;;;14.60;99.90;;;;;;4999626;28;20249;-61
2021/09/18 00:45:52;;;;;;;2.73;1.30;;;14.70;99.90;;;;;;5001117;28;20798;-61
2021/09/18 00:48:20;;;;;;;2.33;1.40;;;14.60;99.90;;;;;;4991606;28;20268;-60
2021/09/18 00:50:48;;;;;;;1.40;1.20;;;14.50;99.90;;;;;;4993110;28;20708;-60
2021/09/18 00:53:16;;;;;;;2.50;1.33;;;14.60;99.90;;;;;;4988203;28;20292;-59
2021/09/18 00:55:44;;;;;;;2.17;1.90;;;14.50;99.90;;;;;;4994285;28;20937;-60
2021/09/18 00:58:12;;;;;;;2.50;1.50;;;14.50;99.90;;;;;;4985594;28;20726;-60
2021/09/18 01:00:42;;;;;;;1.63;1.50;;;14.40;99.90;;;;;;4989885;28;20325;-60
2021/09/18 01:03:10;;;;;;;2.37;1.70;;;14.50;99.90;;;;;;4993354;28;20328;-61
2021/09/18 01:05:40;;;;;;;2.30;1.47;;;14.50;99.90;;;;;;4990349;28;20233;-61
2021/09/18 01:08:10;;;;;;;2.50;1.57;;;14.50;99.90;;;;;;4995552;28;20462;-60
2021/09/18 01:10:39;;;;;;;2.57;1.60;;;14.40;99.90;;;;;;4992457;28;20237;-60
2021/09/18 01:13:11;;;;;;;1.83;1.63;;;14.40;99.90;;;;;;4993798;28;20237;-61
2021/09/18 01:15:40;;;;;;;1.83;1.70;;;14.40;99.90;;;;;;4991166;28;20248;-60
2021/09/18 01:18:10;;;;;;;2.67;1.80;;;14.40;99.90;;;;;;4990858;28;20261;-62
2021/09/18 01:20:40;;;;;;;2.20;1.70;;;14.40;99.90;;;;;;4996149;28;20291;-60
2021/09/18 01:23:10;;;;;;;2.80;1.67;;;14.40;99.90;;;;;;4993003;28;20770;-60
2021/09/18 01:25:40;;;;;;;4.87;1.90;;;14.40;99.90;;;;;;4992982;28;20241;-61
2021/09/18 01:28:09;;;;;;;2.60;1.70;;;14.40;99.90;;;;;;4990543;28;20233;-60
2021/09/18 01:30:38;;;;;;;3.87;1.80;;;14.40;99.90;;;;;;4991012;28;20278;-60
2021/09/18 01:33:08;;;;;;;2.00;1.80;;;14.50;99.90;;;;;;4987310;28;20960;-59
2021/09/18 01:35:37;;;;;;;2.63;1.67;;;14.60;99.90;;;;;;4995437;28;20299;-59
2021/09/18 01:38:05;;;;;;;4.27;2.20;;;14.60;99.90;;;;;;5002638;28;20711;-60
2021/09/18 01:40:36;;;;;;;2.10;1.90;;;14.60;99.90;;;;;;4995121;28;20233;-61
2021/09/18 01:43:06;;;;;;;2.30;2.10;;;14.60;99.90;;;;;;4990780;28;20232;-61
2021/09/18 01:45:35;;;;;;;2.43;2.00;;;14.60;99.90;;;;;;4992947;28;20728;-60
2021/09/18 01:48:06;;;;;;;2.10;1.60;;;14.70;99.90;;;;;;4995618;28;20324;-61
2021/09/18 01:50:39;;;;;;;2.00;1.77;;;14.60;99.90;;;;;;4995509;28;20727;-61
2021/09/18 01:53:08;;;;;;;2.40;1.90;;;14.70;99.90;;;;;;4997989;28;20597;-61
2021/09/18 01:55:38;;;;;;;1.83;1.63;;;14.60;99.90;;;;;;4993783;28;20250;-61
2021/09/18 01:58:08;;;;;;;2.90;1.70;;;14.60;99.90;;;;;;4996880;28;20240;-61
2021/09/18 02:00:39;;;;;;;2.13;1.90;;;14.50;99.90;;;;;;4999879;28;20241;-60
2021/09/18 02:03:07;;;;;;;2.57;1.70;;;14.60;99.90;;;;;;4995359;28;20652;-60
2021/09/18 02:05:36;;;;;;;2.20;1.90;;;14.50;99.90;;;;;;4993605;28;20244;-59
2021/09/18 02:08:05;;;;;;;2.37;2.10;;;14.60;99.90;;;;;;4996490;28;20236;-61
2021/09/18 02:10:34;;;;;;;1.77;1.67;;;14.60;99.90;;;;;;4991150;28;20248;-60
2021/09/18 02:13:04;;;;;;;2.03;1.87;;;14.50;99.90;;;;;;4995545;28;20228;-62
2021/09/18 02:15:34;;;;;;;4.77;2.63;;;14.60;99.90;;;;;;4989369;28;20376;-61
2021/09/18 02:18:04;;;;;;;2.30;2.10;;;14.60;99.90;;;;;;4993427;28;20247;-60
2021/09/18 02:20:33;;;;;;;2.50;1.97;;;14.50;99.90;;;;;;4984344;28;20240;-59
2021/09/18 02:23:03;;;;;;;2.30;1.90;;;14.60;99.90;;;;;;4994458;28;20245;-60
2021/09/18 02:25:31;;;;;;;3.20;2.10;;;14.50;99.90;;;;;;4987753;28;20728;-61
2021/09/18 02:27:59;;;;;;;2.10;1.90;;;14.40;99.90;;;;;;4999371;28;20287;-61
2021/09/18 02:30:29;;;;;;;2.03;1.90;;;14.40;99.90;;;;;;4993444;28;20257;-59
2021/09/18 02:32:59;;;;;;;2.60;2.40;;;14.50;99.90;;;;;;4994605;28;20237;-60
2021/09/18 02:35:29;;;;;;;3.13;2.13;;;14.60;99.90;;;;;;4994580;28;20284;-61
2021/09/18 02:37:59;;;;;;;2.20;2.00;;;14.60;99.90;;;;;;4997363;28;20240;-61
2021/09/18 02:40:29;;;;;;;2.20;1.97;;;14.60;99.90;;;;;;4993186;28;20242;-60
2021/09/18 02:42:59;;;;;;;4.03;1.90;;;14.60;99.90;;;;;;4990446;28;20253;-61
2021/09/18 02:45:28;;;;;;;2.63;1.60;;;14.50;99.90;;;;;;4999570;28;20321;-60
2021/09/18 02:47:57;;;;;;;3.73;1.90;;;14.60;99.90;;;;;;4998357;28;20658;-59
2021/09/18 02:50:27;;;;;;;3.90;2.30;;;14.60;99.90;;;;;;4990689;28;20780;-61
2021/09/18 02:52:55;;;;;;;2.40;2.20;;;14.70;99.90;;;;;;4992933;28;20237;-60
2021/09/18 02:55:23;;;;;;;4.93;2.70;;;14.60;99.90;;;;;;4993228;28;20234;-62
2021/09/18 02:57:51;;;;;;;2.13;1.97;;;14.60;99.90;;;;;;5001672;28;20291;-59
2021/09/18 03:00:20;;;;;;;2.93;2.13;;;14.70;99.90;;;;;;4990939;28;20242;-61
2021/09/18 03:02:48;;;;;;;2.93;2.13;;;14.70;99.90;;;;;;4986710;28;20234;-60
2021/09/18 03:05:16;;;;;;;2.73;2.30;;;14.60;99.90;;;;;;4990338;28;20642;-59
2021/09/18 03:07:46;;;;;;;3.70;2.30;;;14.70;99.90;;;;;;4992754;28;20639;-60
2021/09/18 03:10:14;;;;;;;3.70;2.20;;;14.50;99.90;;;;;;4995199;28;20325;-61
2021/09/18 03:12:43;;;;;;;2.40;2.20;;;14.50;99.90;;;;;;5001391;28;20241;-61
2021/09/18 03:15:12;;;;;;;4.90;2.37;;;14.40;99.90;;;;;;4997183;28;20632;-60
2021/09/18 03:17:40;;;;;;;5.53;2.80;;;14.50;99.90;;;;;;4984454;28;20312;-60
2021/09/18 03:20:09;;;;;;;4.17;2.40;;;14.50;99.90;;;;;;4998366;28;20237;-61
2021/09/18 03:22:38;;;;;;;2.67;2.20;;;14.60;99.90;;;;;;4993557;28;20657;-60
2021/09/18 03:25:09;;;;;;;2.80;2.60;;;14.60;99.90;;;;;;4990369;28;20248;-61
2021/09/18 03:27:37;;;;;;;2.80;2.10;;;14.50;99.90;;;;;;5001273;28;20678;-60
2021/09/18 03:30:07;;;;;;;2.97;2.57;;;14.50;99.90;;;;;;4988676;28;20312;-60
2021/09/18 03:32:35;;;;;;;2.93;2.30;;;14.40;99.90;;;;;;5004114;28;20239;-61
2021/09/18 03:35:05;;;;;;;3.60;2.40;;;14.50;99.90;;;;;;4994722;28;20234;-60
2021/09/18 03:37:34;;;;;;;2.70;2.47;;;14.60;99.90;;;;;;4995614;28;20244;-60
2021/09/18 03:40:04;;;;;;;2.60;2.40;;;14.70;99.90;;;;;;4995907;28;20716;-62
2021/09/18 03:42:33;;;;;;;3.63;2.53;;;14.80;99.90;;;;;;4998089;28;20245;-60
2021/09/18 03:45:02;;;;;;;2.30;2.10;;;14.80;99.90;;;;;;4992043;28;20764;-60
2021/09/18 03:47:31;;;;;;;2.57;2.17;;;14.80;99.90;;;;;;4998742;28;20234;-60
2021/09/18 03:49:59;;;;;;;4.97;2.60;;;14.80;99.90;;;;;;4991154;28;20241;-61
2021/09/18 03:52:28;;;;;;;2.70;2.50;;;14.80;99.90;;;;;;4995946;28;20233;-60
2021/09/18 03:54:56;;;;;;;4.77;2.70;;;14.70;99.90;;;;;;4996776;28;20242;-59
2021/09/18 03:57:25;;;;;;;4.40;2.90;;;14.70;99.90;;;;;;4993236;28;20753;-60
2021/09/18 03:59:55;;;;;;;2.97;2.63;;;14.80;99.90;;;;;;4991735;28;20729;-60
2021/09/18 04:02:23;;;;;;;3.03;2.43;;;14.70;99.90;;;;;;4996081;28;20741;-59
2021/09/18 04:04:52;;;;;;;3.27;2.90;;;14.80;99.90;;;;;;4998187;28;20763;-60
2021/09/18 04:07:20;;;;;;;3.83;2.80;;;14.70;99.90;;;;;;4993864;28;20260;-60
2021/09/18 04:09:48;;;;;;;3.07;2.80;;;14.60;99.90;;;;;;4989864;28;20234;-60
2021/09/18 04:12:16;;;;;;;3.90;2.57;;;14.70;99.90;;;;;;4989229;28;20241;-61
2021/09/18 04:14:45;;;;;;;4.17;2.73;;;14.70;99.90;;;;;;4989688;28;20246;-59
2021/09/18 04:17:14;;;;;;;3.40;2.87;;;14.70;99.90;;;;;;4999949;28;20230;-60
2021/09/18 04:20:10;;;;;;;3.10;2.70;;;14.70;99.90;;;;;;4990576;28;20247;-60
2021/09/18 04:22:38;;;;;;;4.03;2.90;;;14.70;99.90;;;;;;4988784;28;20246;-60
2021/09/18 04:25:07;;;;;;;3.03;2.73;;;14.70;99.90;;;;;;4990371;28;20536;-62
2021/09/18 04:27:35;;;;;;;3.00;2.70;;;14.60;99.90;;;;;;4994048;28;20561;-60
2021/09/18 04:30:04;;;;;;;4.20;2.83;;;14.70;99.90;;;;;;4993987;28;20240;-61
2021/09/18 04:32:35;;;;;;;3.53;3.20;;;14.70;99.90;;;;;;4994157;28;20240;-59
2021/09/18 04:35:04;;;;;;;3.20;2.90;;;14.70;99.90;;;;;;4995890;28;20233;-60
2021/09/18 04:37:33;;;;;;;3.63;2.97;;;14.60;99.90;;;;;;4994518;28;20272;-61
2021/09/18 04:40:01;;;;;;;3.77;3.00;;;14.80;99.90;;;;;;4999134;28;20252;-61
2021/09/18 04:42:29;;;;;;;5.50;3.77;;;14.80;99.90;;;;;;4991890;28;20245;-60
2021/09/18 04:44:57;;;;;;;3.13;2.83;;;14.70;99.90;;;;;;4994567;28;20279;-60
2021/09/18 04:47:25;;;;;;;4.17;3.10;;;14.70;99.90;;;;;;4987707;28;20290;-60
2021/09/18 04:49:57;;;;;;;3.93;3.03;;;14.70;99.90;;;;;;4988626;28;20761;-59
2021/09/18 04:52:25;;;;;;;3.57;3.10;;;14.60;99.90;;;;;;4993293;28;20252;-61
2021/09/18 04:54:54;;;;;;;4.77;3.57;;;14.50;99.90;;;;;;4994150;28;20241;-62
2021/09/18 04:57:22;;;;;;;5.23;2.83;;;14.40;99.90;;;;;;4993507;28;20229;-61
2021/09/18 04:59:51;;;;;;;3.93;3.33;;;14.40;99.90;;;;;;4993672;28;20253;-60
2021/09/18 05:02:19;;;;;;;3.70;3.40;;;14.40;99.90;;;;;;4992628;28;20244;-60
2021/09/18 05:04:47;;;;;;;3.80;3.40;;;14.40;99.90;;;;;;4991191;28;20234;-60
2021/09/18 05:07:17;;;;;;;4.00;3.13;;;14.50;99.90;;;;;;5001342;28;20233;-60
2021/09/18 05:09:45;;;;;;;3.70;3.23;;;14.50;99.90;;;;;;4989034;28;20246;-59
2021/09/18 05:12:13;;;;;;;3.17;2.87;;;14.70;99.90;;;;;;5000980;28;20245;-60
2021/09/18 05:14:41;;;;;;;4.30;3.00;;;14.70;99.90;;;;;;4994805;28;20871;-61
2021/09/18 05:17:09;;;;;;;3.80;3.20;;;14.70;99.90;;;;;;4987749;28;20234;-62
2021/09/18 05:19:38;;;;;;;3.40;3.10;;;14.60;99.90;;;;;;4983710;28;20620;-61
2021/09/18 05:22:06;;;;;;;5.07;3.30;;;14.50;99.90;;;;;;4993444;28;20229;-60
2021/09/18 05:24:35;;;;;;;5.70;2.93;;;14.40;99.90;;;;;;4992009;28;20249;-61
2021/09/18 05:27:05;;;;;;;4.23;3.03;;;14.40;99.90;;;;;;5003026;28;20752;-60
2021/09/18 05:29:33;;;;;;;4.10;3.70;;;14.40;99.90;;;;;;4984749;28;20234;-62
2021/09/18 05:32:01;;;;;;;4.17;3.30;;;14.60;99.90;;;;;;4992566;28;20275;-60
2021/09/18 05:34:30;;;;;;;4.87;4.00;;;14.60;99.90;;;;;;4990763;28;20523;-60
2021/09/18 05:36:58;;;;;;;3.80;3.50;;;14.60;99.90;;;;;;5001381;28;20326;-60
2021/09/18 05:39:26;;;;;;;4.20;3.70;;;14.70;99.90;;;;;;4991269;28;20295;-61
2021/09/18 05:41:55;;;;;;;4.13;3.73;;;14.80;99.90;;;;;;5000959;28;20237;-61
2021/09/18 05:44:24;;;;;;;6.20;3.80;;;14.90;99.90;;;;;;4996258;28;20249;-60
2021/09/18 05:46:52;;;;;;;5.17;3.70;;;14.90;99.90;;;;;;5001319;28;20246;-60
2021/09/18 05:49:20;;;;;;;4.43;3.90;;;14.90;99.90;;;;;;4991043;28;20265;-60
2021/09/18 05:51:48;;;;;;;6.23;3.73;;;14.90;99.90;;;;;;5004040;28;20669;-60
2021/09/18 05:54:16;;;;;;;4.57;4.17;;;14.90;99.90;;;;;;4995498;28;20234;-61
2021/09/18 05:56:45;;;;;;;5.03;4.57;;;15.00;99.90;;;;;;5000270;28;20328;-62
2021/09/18 05:59:14;;;;;;;4.87;4.37;;;14.90;99.90;;;;;;4993828;28;20241;-61
2021/09/18 06:01:42;;;;;;;4.53;3.90;;;14.90;99.90;;;;;;4996793;28;20238;-60
2021/09/18 06:04:11;;;;;;;5.03;4.17;;;14.80;99.90;;;;;;4997372;28;20268;-60
2021/09/18 06:06:39;;;;;;;6.20;4.80;;;14.90;99.90;;;;;;4991707;28;20246;-61
2021/09/18 06:09:07;;;;;;;6.70;5.03;;;14.90;99.90;;;;;;4995860;28;20246;-61
2021/09/18 06:11:35;;;;;;;7.37;5.30;;;14.80;99.90;;;;;;5001480;28;20268;-60
2021/09/18 06:14:03;;;;;;;5.50;5.00;;;14.80;99.90;;;;;;5000380;28;20252;-61
2021/09/18 06:16:33;;;;;;;5.27;4.77;;;14.80;99.90;;;;;;4980397;28;20238;-61
2021/09/18 06:19:02;;;;;;;5.70;5.20;;;14.70;99.90;;;;;;4977628;28;20235;-60
2021/09/18 06:21:30;;;;;;;5.90;5.30;;;14.70;99.90;;;;;;4981451;28;20237;-60
2021/09/18 06:23:58;;;;;;;6.40;5.50;;;14.70;99.90;;;;;;4979058;28;20253;-61
2021/09/18 06:26:26;;;;;;;6.73;6.13;;;14.70;99.90;;;;;;4982621;28;20234;-60
2021/09/18 06:28:54;;;;;;;7.30;6.53;;;14.70;99.90;;;;;;4983608;28;20750;-61
2021/09/18 06:31:25;;;;;;;8.50;7.07;;;14.70;99.90;;;;;;4982904;28;20249;-61
2021/09/18 06:33:55;;;;;;;7.13;6.43;;;14.70;99.90;;;;;;4977282;28;20710;-61
2021/09/18 06:36:23;;;;;;;7.07;6.37;;;14.70;99.90;;;;;;4975540;28;20269;-60
2021/09/18 06:38:51;;;;;;;7.37;6.43;;;14.80;99.90;;;;;;4978099;28;20246;-61
2021/09/18 06:41:19;;;;;;;9.43;7.77;;;14.90;99.90;;;;;;4979835;28;20408;-59
2021/09/18 06:43:48;;;;;;;9.07;8.27;;;14.90;99.90;;;;;;4979097;28;20806;-60
2021/09/18 06:46:17;;;;;;;11.60;7.83;;;14.90;99.90;;;;;;4979426;28;20786;-60
2021/09/18 06:48:45;;;;;;;9.47;8.17;;;14.90;99.90;;;;;;4981295;28;20248;-60
2021/09/18 06:51:15;;;;;;;9.93;8.93;;;14.90;99.90;;;;;;4979602;28;20333;-61
2021/09/18 06:53:43;;;;;;;11.13;10.03;;;14.90;99.90;;;;;;4976249;28;20962;-61
2021/09/18 06:56:12;;;;;;;11.17;9.93;;;15.00;99.90;;;;;;4986487;28;20250;-61
2021/09/18 06:58:40;;;;;;;11.70;9.03;;;15.00;99.90;;;;;;4978631;28;20618;-60
2021/09/18 07:01:08;;;;;;;12.13;10.90;;;15.10;99.90;;;;;;4979321;28;20227;-60
2021/09/18 07:03:37;;;;;;;14.30;10.73;;;15.10;99.90;;;;;;4977576;28;20345;-60
2021/09/18 07:06:06;;;;;;;15.07;11.50;;;15.10;99.90;;;;;;4978775;28;20308;-60
2021/09/18 07:08:35;;;;;;;11.83;10.43;;;15.20;99.90;;;;;;4983554;28;20244;-60
2021/09/18 07:11:03;;;;;;;14.27;11.90;;;15.40;99.90;;;;;;4979512;28;20598;-60
2021/09/18 07:13:31;;;;;;;12.30;10.83;;;15.30;99.90;;;;;;4987554;28;20240;-60
2021/09/18 07:16:00;;;;;;;13.67;10.77;;;15.30;99.90;;;;;;4984217;28;20233;-60
2021/09/18 07:18:28;;;;;;;11.37;10.10;;;15.40;99.90;;;;;;4983141;28;20629;-60
2021/09/18 07:20:56;;;;;;;11.10;10.00;;;15.60;99.90;;;;;;4978995;28;20754;-61
2021/09/18 07:23:25;;;;;;;11.73;10.50;;;15.60;99.90;;;;;;4979964;28;20731;-60
2021/09/18 07:25:54;;;;;;;10.70;9.60;;;15.70;99.90;;;;;;4978627;28;20621;-61
2021/09/18 07:28:22;;;;;;;11.07;9.97;;;15.80;99.90;;;;;;4974810;28;21438;-60
2021/09/18 07:30:51;;;;;;;8.97;7.70;;;15.90;99.90;;;;;;4981821;28;20241;-62
2021/09/18 07:33:19;;;;;;;9.20;8.30;;;15.90;99.90;;;;;;4985807;28;20225;-61
2021/09/18 07:35:47;;;;;;;8.03;7.27;;;16.00;99.90;;;;;;4980205;28;20316;-61
2021/09/18 07:38:15;;;;;;;9.00;8.10;;;16.00;99.90;;;;;;4981121;28;20244;-60
2021/09/18 07:40:44;;;;;;;7.80;7.07;;;16.10;99.90;;;;;;4985106;28;20242;-60
2021/09/18 07:43:13;;;;;;;8.07;7.37;;;16.10;99.90;;;;;;4974252;28;20246;-61
2021/09/18 07:45:41;;;;;;;7.87;7.03;;;16.10;99.90;;;;;;4978535;28;20653;-61
2021/09/18 07:48:09;;;;;;;8.23;7.33;;;16.20;99.90;;;;;;4977978;28;20289;-61
2021/09/18 07:50:38;;;;;;;8.33;6.50;;;16.30;99.90;;;;;;4980206;28;20242;-61
2021/09/18 07:53:07;;;;;;;7.03;6.33;;;16.40;99.90;;;;;;4981380;28;20249;-61
2021/09/18 07:55:40;;;;;;;6.80;6.20;;;16.50;99.90;;;;;;4981407;28;20281;-61
2021/09/18 07:58:15;;;;;;;7.00;6.30;;;16.60;99.90;;;;;;4986628;28;20242;-59
2021/09/18 08:00:43;;;;;;;6.50;5.60;;;16.70;99.90;;;;;;4977022;28;20273;-61
2021/09/18 08:03:13;;;;;;;6.00;5.40;;;16.70;99.90;;;;;;4979581;28;20615;-61
2021/09/18 08:05:42;;;;;;;7.17;6.47;;;16.70;99.90;;;;;;4983222;28;20239;-59
2021/09/18 08:08:10;;;;;;;6.57;5.97;;;16.80;99.90;;;;;;4976601;28;20319;-61
2021/09/18 08:10:38;;;;;;;6.93;6.23;;;16.80;99.90;;;;;;4979431;28;20602;-59
2021/09/18 08:13:06;;;;;;;6.20;5.60;;;16.80;99.90;;;;;;4987705;28;20713;-60
2021/09/18 08:15:36;;;;;;;5.93;5.10;;;16.80;99.90;;;;;;4981173;28;20305;-59
2021/09/18 08:18:04;;;;;;;4.60;4.20;;;16.80;99.90;;;;;;4987434;28;20291;-59
2021/09/18 08:20:33;;;;;;;4.13;3.73;;;16.90;99.90;;;;;;4983662;28;20324;-61
2021/09/18 08:23:01;;;;;;;3.30;3.00;;;16.90;99.90;;;;;;4984021;28;20783;-60
2021/09/18 08:25:30;;;;;;;4.47;2.93;;;17.00;99.90;;;;;;4977865;28;20282;-60
2021/09/18 08:27:58;;;;;;;2.70;2.20;;;17.10;99.90;;;;;;4975581;28;20623;-61
2021/09/18 08:30:27;;;;;;;3.37;2.20;;;17.10;99.90;;;;;;4978782;28;20240;-60
2021/09/18 08:32:56;;;;;;;2.53;2.33;;;17.30;99.90;;;;;;4986653;28;21038;-61
2021/09/18 08:35:25;;;;;;;2.87;2.30;;;17.40;99.90;;;;;;4980472;28;20249;-61
2021/09/18 08:37:53;;;;;;;2.70;2.30;;;17.50;99.90;;;;;;4972861;28;20326;-62
2021/09/18 08:40:21;;;;;;;2.60;2.40;;;17.60;99.90;;;;;;4979071;28;20659;-60
2021/09/18 08:42:49;;;;;;;2.57;2.20;;;17.70;99.90;;;;;;4987593;28;20244;-60
2021/09/18 08:45:17;;;;;;;2.97;2.17;;;17.80;99.90;;;;;;4980970;28;20288;-61
2021/09/18 08:47:47;;;;;;;4.43;2.23;;;18.00;99.90;;;;;;4983834;28;20247;-61
2021/09/18 08:50:20;;;;;;;2.53;1.90;;;18.00;99.90;;;;;;4977377;28;20235;-60
2021/09/18 08:52:48;;;;;;;1.93;1.80;;;18.20;99.90;;;;;;4977537;28;20234;-59
2021/09/18 08:55:17;;;;;;;2.43;2.23;;;18.30;99.90;;;;;;4980098;28;20271;-60
2021/09/18 08:57:45;;;;;;;3.07;2.00;;;18.40;99.90;;;;;;4984542;28;20696;-60
2021/09/18 09:00:48;;;;;;;1.90;1.80;;;18.50;99.90;;;;;;4986508;28;20613;-62
2021/09/18 09:03:25;;;;;;;3.43;2.33;;;18.60;99.90;;;;;;4978889;28;20240;-61
2021/09/18 09:06:01;;;;;;;1.90;1.70;;;18.60;99.90;;;;;;4981672;28;20601;-60
2021/09/18 09:08:30;;;;;;;2.30;2.10;;;18.70;99.90;;;;;;4976554;28;20247;-61
2021/09/18 09:10:58;;;;;;;4.07;2.10;;;19.00;99.90;;;;;;4977465;28;20750;-59
2021/09/18 09:13:27;;;;;;;2.40;1.93;;;19.20;99.90;;;;;;4982986;28;20244;-59
2021/09/18 09:16:08;;;;;;;2.17;1.97;;;19.80;99.90;;;;;;4983569;28;20279;-60
2021/09/18 09:18:41;;;;;;;2.50;1.90;;;20.00;99.90;;;;;;4976552;28;20272;-59
2021/09/18 09:21:13;;;;;;;2.00;1.90;;;20.30;99.90;;;;;;4975360;28;20245;-59
2021/09/18 09:24:03;;;;;;;1.53;1.40;;;20.70;99.90;;;;;;4974740;28;20243;-59
2021/09/18 09:26:31;;;;;;;1.70;1.60;;;20.90;99.90;;;;;;4980567;28;20294;-59
2021/09/18 09:28:59;;;;;;;4.47;2.07;;;20.60;99.90;;;;;;4976384;28;20264;-60
2021/09/18 09:31:29;;;;;;;1.90;1.80;;;20.30;99.90;;;;;;4983107;28;20264;-60
2021/09/18 09:34:00;;;;;;;2.30;1.97;;;19.90;99.90;;;;;;4984914;28;20750;-60
2021/09/18 09:36:30;;;;;;;1.97;1.83;;;19.80;99.90;;;;;;4976926;28;20652;-61
2021/09/18 09:39:00;;;;;;;2.20;2.00;;;19.80;99.90;;;;;;4976655;28;20301;-61
2021/09/18 09:41:33;;;;;;;2.80;2.60;;;20.00;99.90;;;;;;4977934;28;20441;-60
2021/09/18 09:44:02;;;;;;;3.23;2.60;;;20.30;99.90;;;;;;4980065;28;20771;-59
2021/09/18 09:46:30;;;;;;;1.97;1.80;;;20.20;99.90;;;;;;4973925;28;20765;-60
2021/09/18 09:49:08;;;;;;;1.77;1.67;;;20.20;99.90;;;;;;4982272;28;20245;-60
2021/09/18 09:51:38;;;;;;;2.23;2.03;;;20.20;99.90;;;;;;4976626;28;20669;-59
2021/09/18 09:54:20;;;;;;;2.07;1.57;;;20.20;99.90;;;;;;4985754;28;20230;-60
2021/09/18 09:56:49;;;;;;;1.67;1.40;;;20.20;99.90;;;;;;4891633;28;21248;-59
2021/09/18 09:59:29;;;;;;;1.20;1.10;;;20.00;99.90;;;;;;1028080;28;10002313;-61
2021/09/18 10:01:57;;;;;;;1.83;1.20;;;19.80;99.90;;;;;;4966575;28;20509;-60
2021/09/18 10:04:25;;;;;;;2.40;1.37;;;19.80;99.90;;;;;;4961824;28;20710;-60
2021/09/18 10:06:55;;;;;;;1.47;1.07;;;19.80;99.90;;;;;;4968720;28;20265;-59
2021/09/18 10:09:24;;;;;;;1.40;1.10;;;19.80;99.90;;;;;;4963240;28;20237;-60
2021/09/18 10:11:55;;;;;;;1.10;1.03;;;19.70;99.90;;;;;;4973505;28;20655;-59
2021/09/18 10:14:26;;;;;;;1.17;0.90;;;19.70;99.90;;;;;;4968214;28;20542;-61
2021/09/18 10:16:57;;;;;;;2.00;1.27;;;19.50;99.90;;;;;;4967109;28;20242;-60
2021/09/18 10:25:04;;;;;;;2.20;1.03;;;19.40;99.90;;;;;;4988649;28;20240;-61
2021/09/18 10:27:32;;;;;;;1.53;1.00;;;19.50;99.90;;;;;;4981739;28;20798;-60
2021/09/18 10:30:00;;;;;;;1.67;0.90;;;19.50;99.90;;;;;;4990338;28;20247;-59
2021/09/18 10:32:46;;;;;;;1.27;0.90;;;19.40;99.90;;;;;;4996141;28;20271;-61
2021/09/18 10:35:16;;;;;;;2.07;1.00;;;19.20;99.90;;;;;;4994252;28;20239;-61
2021/09/18 10:37:46;;;;;;;1.13;0.80;;;19.10;99.90;;;;;;4992625;28;20259;-61
2021/09/18 10:40:16;;;;;;;1.93;0.83;;;19.10;99.90;;;;;;4996743;28;20332;-60
2021/09/18 10:42:46;;;;;;;1.70;0.80;;;19.00;99.90;;;;;;4984815;28;20252;-59
2021/09/18 10:45:17;;;;;;;0.80;0.80;;;18.70;99.90;;;;;;4992838;28;20643;-61
2021/09/18 10:47:47;;;;;;;0.90;0.80;;;18.60;99.90;;;;;;4997263;28;20272;-60
2021/09/18 10:50:38;;;;;;;1.50;1.00;;;18.40;99.90;;;;;;4990629;28;20339;-60
2021/09/18 10:53:10;;;;;;;1.53;0.93;;;18.20;99.90;;;;;;4994166;28;20572;-61
2021/09/18 10:55:53;;;;;;;1.93;0.90;;;18.30;99.90;;;;;;4997621;28;20232;-60
2021/09/18 10:58:22;;;;;;;0.93;0.87;;;18.50;99.90;;;;;;4992340;28;20247;-59
2021/09/18 11:00:56;;;;;;;1.03;0.80;;;18.60;99.90;;;;;;4989304;28;20716;-58
2021/09/18 11:03:43;;;;;;;1.90;0.80;;;18.80;99.90;;;;;;4988548;28;20239;-60
2021/09/18 11:06:39;;;;;;;0.83;0.80;;;19.00;99.90;;;;;;4994203;28;20592;-60
2021/09/18 11:09:09;;;;;;;0.90;0.80;;;19.10;99.90;;;;;;4982372;28;20272;-60
2021/09/18 11:11:37;;;;;;;1.50;0.80;;;19.20;99.90;;;;;;4999127;28;20515;-58
2021/09/18 11:14:05;;;;;;;0.90;0.70;;;19.20;99.90;;;;;;4989510;28;20241;-60
2021/09/18 11:16:35;;;;;;;1.30;0.70;;;19.20;99.90;;;;;;4996372;28;20240;-61
2021/09/18 11:19:08;;;;;;;1.03;0.70;;;19.50;99.90;;;;;;4998447;28;20240;-60
2021/09/18 11:21:40;;;;;;;0.63;0.60;;;19.70;99.90;;;;;;4988108;28;20296;-60
2021/09/18 11:24:27;;;;;;;1.20;0.90;;;20.10;99.90;;;;;;4996243;28;20319;-60
2021/09/18 11:26:58;;;;;;;1.27;0.70;;;20.50;99.90;;;;;;5003450;28;20585;-59
2021/09/18 11:29:34;;;;;;;1.37;0.90;;;20.80;99.90;;;;;;4994934;28;20532;-59
2021/09/18 11:32:06;;;;;;;0.90;0.80;;;20.80;99.90;;;;;;4989405;28;20309;-60
2021/09/18 11:34:38;;;;;;;1.27;0.90;;;20.80;99.90;;;;;;4991566;28;20246;-60
2021/09/18 11:37:09;;;;;;;1.53;0.70;;;20.60;99.90;;;;;;4988153;28;20256;-61
2021/09/18 11:39:47;;;;;;;0.70;0.60;;;20.40;99.90;;;;;;4989231;28;20690;-60
2021/09/18 11:42:19;;;;;;;0.60;0.60;;;20.10;99.90;;;;;;4991684;28;20261;-59
2021/09/18 11:44:51;;;;;;;2.07;0.80;;;19.80;99.90;;;;;;4993805;28;20624;-60
2021/09/18 11:47:24;;;;;;;1.63;1.00;;;19.60;99.90;;;;;;4988411;28;20276;-60
2021/09/18 11:49:53;;;;;;;0.83;0.70;;;19.40;99.90;;;;;;4989811;28;20265;-61
2021/09/18 11:52:33;;;;;;;1.30;0.70;;;19.10;99.90;;;;;;4993223;28;20241;-59
2021/09/18 11:55:04;;;;;;;1.33;1.03;;;18.90;99.90;;;;;;4991199;28;20339;-60
2021/09/18 11:57:32;;;;;;;1.40;1.00;;;18.50;99.90;;;;;;4995325;28;20271;-59
2021/09/18 12:00:16;;;;;;;2.20;1.30;;;18.30;99.90;;;;;;4992667;28;20300;-60
2021/09/18 12:02:44;;;;;;;1.50;1.10;;;18.20;99.90;;;;;;4983368;28;20299;-60
2021/09/18 12:05:18;;;;;;;1.90;1.50;;;18.00;99.90;;;;;;4991358;28;20236;-59
2021/09/18 12:07:48;;;;;;;2.07;1.40;;;17.90;99.90;;;;;;4987870;28;20252;-60
2021/09/18 12:10:18;;;;;;;2.10;1.30;;;17.70;99.90;;;;;;4990676;28;20330;-59
2021/09/18 12:12:49;;;;;;;2.10;1.40;;;17.60;99.90;;;;;;4992185;28;20239;-61
2021/09/18 12:15:17;;;;;;;1.63;1.50;;;17.50;99.90;;;;;;4997400;28;20248;-61
2021/09/18 12:17:45;;;;;;;1.50;1.40;;;17.40;99.90;;;;;;4990142;28;20251;-59
2021/09/18 12:20:13;;;;;;;1.93;1.20;;;17.30;99.90;;;;;;4993391;28;20300;-60
2021/09/18 12:22:42;;;;;;;2.50;1.27;;;17.40;99.90;;;;;;4986757;28;20728;-60
2021/09/18 12:25:10;;;;;;;1.97;1.40;;;17.40;99.90;;;;;;4988148;28;20235;-60
2021/09/18 12:27:40;;;;;;;1.97;1.10;;;17.40;99.90;;;;;;4993959;28;20239;-60
2021/09/18 12:30:11;;;;;;;2.50;1.50;;;17.50;99.90;;;;;;4983280;28;20653;-60
2021/09/18 12:32:39;;;;;;;2.50;1.53;;;17.60;99.90;;;;;;4990536;28;20695;-61
2021/09/18 12:35:10;;;;;;;4.53;1.40;;;17.60;99.90;;;;;;4999862;28;20246;-60
2021/09/18 12:37:40;;;;;;;1.40;1.27;;;17.60;99.90;;;;;;4991750;28;20318;-59
2021/09/18 12:40:19;;;;;;;1.60;1.27;;;17.60;99.90;;;;;;4986224;28;20579;-60
2021/09/18 12:43:11;;;;;;;2.27;1.30;;;17.70;99.90;;;;;;4991040;28;20234;-60
2021/09/18 12:45:39;;;;;;;2.03;1.50;;;17.70;99.90;;;;;;4983854;28;20327;-59
2021/09/18 12:48:21;;;;;;;1.37;1.27;;;17.70;99.90;;;;;;4986691;28;20240;-60
2021/09/18 12:51:04;;;;;;;2.80;1.50;;;17.80;99.90;;;;;;4988517;28;20306;-60
2021/09/18 12:53:35;;;;;;;1.87;1.40;;;17.90;99.90;;;;;;4984177;28;20236;-60
2021/09/18 12:56:31;;;;;;;3.67;1.50;;;18.00;99.90;;;;;;4982377;28;20330;-61
2021/09/18 12:59:13;;;;;;;1.80;1.30;;;18.20;99.90;;;;;;4985560;28;20267;-62
2021/09/18 13:01:43;;;;;;;2.07;1.23;;;18.20;99.90;;;;;;4986227;28;20250;-59
2021/09/18 13:04:15;;;;;;;3.90;1.67;;;18.20;99.90;;;;;;4984480;28;20240;-61
2021/09/18 13:06:56;;;;;;;1.47;1.37;;;18.20;99.90;;;;;;4986488;28;20332;-60